Flight Track Log - Related Links

Times and Time Zones

All times are in EDT time to prevent confusion due to time zone crossing. See the TRS426 flight status page for this flight to view local times or setup timezone preferences in your user account.

Time Position Orientation Groundspeed Altitude Reporting Facility
EDT Latitude Longitude Course Direction KTS MPH feet Rate Location/Type
Sat 12:24:35 PM 35.0500 -89.9833 22° Northeast 183 211 1,000  Level KMEM
Sat 12:25:20 PM 35.0833 -89.9667 22° Northeast 183 211 2,400 1,657 Climbing KMEM
Sat 12:26:20 PM 35.1333 -89.9167 39° Northeast 245 282 3,900 1,850 Climbing KMEM
Sat 12:27:20 PM 35.1833 -89.8500 47° Northeast 258 297 6,100 1,935 Climbing KMEM
Sat 12:28:24 PM 35.1667 -89.7667 104° East 288 331 7,900 1,815 Climbing KMEM
Sat 12:30:02 PM 35.1156 -89.6133 112° Southeast 311 358 11,000 2,013 Climbing Memphis Center
Sat 12:31:02 PM 35.0650 -89.5225 124° Southeast 317 365 13,200 1,900 Climbing Memphis Center
Sat 12:32:02 PM 35.0247 -89.4164 115° Southeast 334 384 14,800 1,650 Climbing Memphis Center
Sat 12:33:02 PM 34.9736 -89.3003 118° Southeast 365 420 16,500 1,300 Climbing Memphis Center
Sat 12:34:02 PM 34.9267 -89.1969 119° Southeast 380 437 17,400 1,200 Climbing Memphis Center
Sat 12:35:02 PM 34.8919 -89.0533 106° East 419 482 18,900 1,400 Climbing Memphis Center
Sat 12:36:02 PM 34.8633 -88.9069 103° East 440 506 20,200 1,350 Climbing Memphis Center
Sat 12:37:02 PM 34.8383 -88.7531 101° East 453 521 21,600 1,200 Climbing Memphis Center
Sat 12:38:02 PM 34.8111 -88.5992 102° East 459 528 22,600 1,200 Climbing Memphis Center
Sat 12:39:02 PM 34.7817 -88.4331 102° East 459 528 24,000 1,200 Climbing Memphis Center
Sat 12:40:02 PM 34.7561 -88.2767 101° East 464 534 25,000 500 Climbing Memphis Center
Sat 12:41:02 PM 34.7283 -88.1108 101° East 477 549 25,000  Level Memphis Center
Sat 12:42:02 PM 34.6981 -87.9550 103° East 482 555 25,000  Level Memphis Center
Sat 12:43:02 PM 34.6719 -87.7964 101° East 482 555 25,000  Level Memphis Center
Sat 12:44:02 PM 34.6458 -87.6408 101° East 481 554 25,000  Level Memphis Center
Sat 12:45:02 PM 34.6153 -87.4903 104° East 465 535 25,000  Level Memphis Center
Sat 12:46:30 PM 34.5747 -87.2528 102° East 497 572 25,000  Level Atlanta Center
Sat 12:47:30 PM 34.5472 -87.0978 102° East 484 557 25,000 -100 Level Atlanta Center
Sat 12:48:30 PM 34.5175 -86.9481 104° East 471 542 24,800 -500 Descending Atlanta Center
Sat 12:49:30 PM 34.4831 -86.8108 107° East 444 511 24,000 -400 Descending Atlanta Center
Sat 12:50:30 PM 34.4142 -86.7203 133° Southeast 384 442 24,000  Level Atlanta Center
Sat 12:51:30 PM 34.3686 -86.6083 116° Southeast 379 436 24,000  Level Atlanta Center
Sat 12:52:30 PM 34.3483 -86.4742 100° East 372 428 24,000  Level Atlanta Center
Sat 12:53:30 PM 34.3319 -86.3456 99° East 378 435 24,000  Level Atlanta Center
Sat 12:54:30 PM 34.3156 -86.2167 99° East 384 442 24,000  Level Atlanta Center
Sat 12:55:30 PM 34.2803 -86.0850 108° East 391 450 24,000  Level Atlanta Center
Sat 12:56:30 PM 34.2386 -85.9458 110° East 411 473 24,000 -250 Level Atlanta Center
Sat 12:57:30 PM 34.1906 -85.8067 113° Southeast 435 501 23,500 -1,650 Descending Atlanta Center
Sat 12:58:30 PM 34.1486 -85.6728 111° Southeast 435 501 20,700 -2,500 Descending Atlanta Center
Sat 12:59:30 PM 34.1106 -85.5542 111° Southeast 428 493 18,500 -2,300 Descending Atlanta Center
Sat 01:00:30 PM 34.0661 -85.4281 113° Southeast 415 478 16,100 -2,400 Descending Atlanta Center
Sat 01:01:30 PM 34.0278 -85.3072 111° Southeast 396 456 13,700 -1,850 Descending Atlanta Center
Sat 01:02:30 PM 33.9914 -85.1914 111° Southeast 377 434 12,400 -900 Descending Atlanta Center
Sat 01:03:30 PM 33.9547 -85.0956 115° Southeast 334 384 11,900 -800 Descending Atlanta Center
Sat 01:04:30 PM 33.9156 -85.0100 119° Southeast 297 342 10,800 -1,200 Descending Atlanta Center
Sat 01:05:30 PM 33.8681 -84.9419 130° Southeast 273 314 9,500 -1,000 Descending Atlanta Center
Sat 01:06:30 PM 33.7931 -84.9236 169° South 255 293 8,800 -1,000 Descending Atlanta Center
Sat 01:07:30 PM 33.7222 -84.9231 180° South 260 299 7,500 -900 Descending Atlanta Center
Sat 01:08:30 PM 33.6428 -84.9222 179° South 255 293 7,000 -234 Descending Atlanta Center
Sat 01:09:38 PM 33.6333 -84.8333 97° East 233 268 7,000 -656 Level Atlanta TRACON
Sat 01:10:38 PM 33.6333 -84.7500 90° East 236 272 5,600 -1,150 Descending Atlanta TRACON
Sat 01:11:38 PM 33.6333 -84.6667 90° East 225 259 4,700 -1,096 Descending Atlanta TRACON
Sat 01:12:33 PM 33.6333 -84.6000 90° East 217 250 3,500 -1,211 Descending Atlanta TRACON
Sat 01:13:32 PM 33.6333 -84.5333 90° East 208 239 2,400 -950 Descending Atlanta TRACON
Sat 01:14:33 PM 33.6333 -84.4833 90° East 146 168 1,600 -787 Descending Atlanta TRACON
Sat 01:16:00 PM 33.6367 -84.4279 90° East  Level Estimated
Sat 01:23:00 PM 33.6367 -84.4279 90° East  Level Estimated

Login

Don't have an account? Register now (free) for customized features, flight alerts, and more!